createdAt,value
2023-02-02T00:00:54.176Z,101197.40
2023-02-02T00:02:25.987Z,101198.00
2023-02-02T00:03:58.294Z,101196.20
2023-02-02T00:05:30.081Z,101202.40
2023-02-02T00:07:04.903Z,101206.20
2023-02-02T00:08:38.151Z,101208.00
2023-02-02T00:10:10.934Z,101205.40
2023-02-02T00:11:45.339Z,101213.20
2023-02-02T00:13:17.658Z,101214.80
2023-02-02T00:14:49.671Z,101222.20
2023-02-02T00:16:27.445Z,101220.00
2023-02-02T00:17:59.323Z,101213.80
2023-02-02T00:19:32.345Z,101198.80
2023-02-02T00:21:04.335Z,101205.80
2023-02-02T00:22:36.082Z,101210.40
2023-02-02T00:24:11.195Z,101208.20
2023-02-02T00:25:43.550Z,101206.40
2023-02-02T00:27:15.268Z,101209.20
2023-02-02T00:28:48.047Z,101206.40
2023-02-02T00:30:20.123Z,101199.80
2023-02-02T00:31:52.875Z,101199.20
2023-02-02T00:33:24.806Z,101192.60
2023-02-02T00:34:56.526Z,101201.80
2023-02-02T00:36:28.278Z,101196.20
2023-02-02T00:37:59.988Z,101200.20
2023-02-02T00:39:31.811Z,101195.40
2023-02-02T00:41:04.694Z,101199.20
2023-02-02T00:42:36.457Z,101199.40
2023-02-02T00:44:26.729Z,101196.80
2023-02-02T00:45:58.977Z,101201.80
2023-02-02T00:47:30.909Z,101197.60
2023-02-02T00:49:02.704Z,101203.40
2023-02-02T00:50:34.624Z,101199.20
2023-02-02T00:52:07.189Z,101200.00
2023-02-02T00:53:38.906Z,101205.00
2023-02-02T00:55:12.601Z,101203.40
2023-02-02T00:56:44.615Z,101203.20
2023-02-02T00:58:16.670Z,101206.40
2023-02-02T00:59:48.420Z,101204.80
2023-02-02T01:01:22.197Z,101200.40
2023-02-02T01:02:54.584Z,101195.40
2023-02-02T01:04:26.721Z,101195.00
2023-02-02T01:05:58.578Z,101200.40
2023-02-02T01:07:30.566Z,101200.40
2023-02-02T01:09:03.696Z,101200.20
2023-02-02T01:10:35.921Z,101191.80
2023-02-02T01:12:07.722Z,101191.80
2023-02-02T01:13:39.606Z,101193.40
2023-02-02T01:15:13.510Z,101197.00
2023-02-02T01:16:45.388Z,101194.00
2023-02-02T01:18:17.184Z,101191.00
2023-02-02T01:19:48.962Z,101188.40
2023-02-02T01:21:21.265Z,101192.20
2023-02-02T01:22:53.214Z,101195.00
2023-02-02T01:24:25.542Z,101193.00
2023-02-02T01:26:00.508Z,101200.40
2023-02-02T01:27:32.296Z,101193.40
2023-02-02T01:29:04.112Z,101194.20
2023-02-02T01:30:35.833Z,101191.00
2023-02-02T01:32:07.973Z,101192.60
2023-02-02T01:33:40.091Z,101191.60
2023-02-02T01:35:11.805Z,101195.80
2023-02-02T01:36:43.530Z,101194.20
2023-02-02T01:38:16.161Z,101193.20
2023-02-02T01:39:49.276Z,101196.20
2023-02-02T01:41:24.333Z,101208.20
2023-02-02T01:42:56.126Z,101208.40
2023-02-02T01:44:53.170Z,101207.40
2023-02-02T01:46:29.450Z,101212.20
2023-02-02T01:48:01.283Z,101209.40
2023-02-02T01:49:33.109Z,101210.60
2023-02-02T01:51:14.914Z,101218.60
2023-02-02T01:52:51.677Z,101214.80
2023-02-02T01:54:36.264Z,101211.20
2023-02-02T01:56:14.347Z,101224.80
2023-02-02T01:58:11.592Z,101216.60
2023-02-02T01:59:45.871Z,101220.60
2023-02-02T02:01:17.647Z,101224.20
2023-02-02T02:02:49.593Z,101221.60
2023-02-02T02:04:24.398Z,101230.20
2023-02-02T02:06:03.352Z,101230.60
2023-02-02T02:07:35.460Z,101233.60
2023-02-02T02:09:08.146Z,101234.80
2023-02-02T02:10:40.082Z,101235.40
2023-02-02T02:12:15.391Z,101238.00
2023-02-02T02:14:06.103Z,101239.80
2023-02-02T02:16:19.559Z,101239.80
2023-02-02T02:18:48.487Z,101232.20
2023-02-02T02:21:00.495Z,101230.00
2023-02-02T02:23:36.881Z,101226.20
2023-02-02T02:25:52.680Z,101214.20
2023-02-02T02:27:51.868Z,101219.60
2023-02-02T02:30:02.354Z,101214.80
2023-02-02T02:31:35.079Z,101212.00
2023-02-02T02:33:36.858Z,101209.40
2023-02-02T02:35:45.091Z,101213.40
2023-02-02T02:37:31.453Z,101214.40
2023-02-02T02:39:25.590Z,101216.80
2023-02-02T02:41:04.841Z,101222.20
2023-02-02T02:42:45.234Z,101220.80
2023-02-02T02:44:20.225Z,101222.40
2023-02-02T02:45:52.826Z,101217.80
2023-02-02T02:47:25.871Z,101213.80
2023-02-02T02:49:01.896Z,101215.80
2023-02-02T02:50:33.793Z,101215.80
2023-02-02T02:52:05.839Z,101216.00
2023-02-02T02:53:40.246Z,101220.20
2023-02-02T02:55:13.366Z,101219.60
2023-02-02T02:57:16.929Z,101220.40
2023-02-02T02:59:24.036Z,101219.60
2023-02-02T03:01:17.283Z,101222.80
2023-02-02T03:03:25.040Z,101225.60
2023-02-02T03:05:19.681Z,101225.00
2023-02-02T03:07:13.261Z,101227.20
2023-02-02T03:09:06.505Z,101224.80
2023-02-02T03:10:41.618Z,101223.60
2023-02-02T03:12:15.831Z,101228.20
2023-02-02T03:13:48.876Z,101221.60
2023-02-02T03:15:20.916Z,101217.80
2023-02-02T03:16:53.435Z,101212.80
2023-02-02T03:18:29.572Z,101220.20
2023-02-02T03:20:01.239Z,101221.00
2023-02-02T03:21:34.552Z,101221.80
2023-02-02T03:23:06.389Z,101221.40
2023-02-02T03:24:38.096Z,101223.40
2023-02-02T03:26:09.996Z,101217.00
2023-02-02T03:27:42.275Z,101216.40
2023-02-02T03:29:14.462Z,101212.80
2023-02-02T03:30:48.625Z,101219.40
2023-02-02T03:32:21.065Z,101215.60
2023-02-02T03:33:52.926Z,101223.00
2023-02-02T03:35:26.126Z,101219.00
2023-02-02T03:36:58.062Z,101219.20
2023-02-02T03:38:29.825Z,101216.60
2023-02-02T03:40:01.564Z,101221.00
2023-02-02T03:41:33.323Z,101216.00
2023-02-02T03:43:05.308Z,101221.00
2023-02-02T03:44:37.041Z,101216.80
2023-02-02T03:46:08.845Z,101219.60
2023-02-02T03:47:40.584Z,101221.60
2023-02-02T03:49:12.319Z,101220.40
2023-02-02T03:50:45.064Z,101219.60
2023-02-02T03:52:16.871Z,101215.40
2023-02-02T03:53:48.574Z,101214.60
2023-02-02T03:55:20.306Z,101216.60
2023-02-02T03:56:52.029Z,101219.20
2023-02-02T03:58:23.866Z,101218.60
2023-02-02T03:59:55.610Z,101219.00
2023-02-02T04:01:30.067Z,101230.60
2023-02-02T04:03:02.070Z,101224.80
2023-02-02T04:04:34.380Z,101224.60
2023-02-02T04:06:06.477Z,101226.40
2023-02-02T04:07:38.238Z,101227.40
2023-02-02T04:09:10.061Z,101227.60
2023-02-02T04:10:42.815Z,101234.00
2023-02-02T04:12:14.517Z,101230.00
2023-02-02T04:13:46.303Z,101229.20
2023-02-02T04:15:18.353Z,101233.00
2023-02-02T04:16:50.057Z,101225.20
2023-02-02T04:18:21.751Z,101229.60
2023-02-02T04:19:58.040Z,101233.00
2023-02-02T04:21:29.932Z,101231.80
2023-02-02T04:23:01.662Z,101227.20
2023-02-02T04:24:33.379Z,101230.00
2023-02-02T04:26:05.914Z,101228.40
2023-02-02T04:27:37.635Z,101226.20
2023-02-02T04:29:09.499Z,101233.00
2023-02-02T04:30:41.732Z,101228.20
2023-02-02T04:32:16.782Z,101232.00
2023-02-02T04:33:48.663Z,101228.20
2023-02-02T04:35:20.388Z,101224.20
2023-02-02T04:36:52.219Z,101230.00
2023-02-02T04:38:23.964Z,101229.60
2023-02-02T04:39:55.745Z,101228.40
2023-02-02T04:41:27.640Z,101228.20
2023-02-02T04:42:59.425Z,101228.60
2023-02-02T04:44:31.234Z,101224.80
2023-02-02T04:46:04.405Z,101223.60
2023-02-02T04:47:36.135Z,101228.20
2023-02-02T04:49:12.320Z,101227.40
2023-02-02T04:50:44.101Z,101231.00
2023-02-02T04:52:16.152Z,101225.20
2023-02-02T04:53:47.926Z,101231.80
2023-02-02T04:55:19.696Z,101225.80
2023-02-02T04:56:51.391Z,101223.60
2023-02-02T04:58:23.109Z,101223.40
2023-02-02T04:59:54.818Z,101225.20
2023-02-02T05:01:26.752Z,101223.60
2023-02-02T05:02:58.503Z,101219.40
2023-02-02T05:04:30.246Z,101222.00
2023-02-02T05:06:05.639Z,101221.00
2023-02-02T05:07:37.969Z,101225.20
2023-02-02T05:09:11.385Z,101224.80
2023-02-02T05:10:43.250Z,101225.00
2023-02-02T05:12:15.004Z,101226.80
2023-02-02T05:13:52.991Z,101228.40
2023-02-02T05:15:25.040Z,101228.20
2023-02-02T05:16:57.027Z,101227.80
2023-02-02T05:18:28.921Z,101219.00
2023-02-02T05:20:00.698Z,101213.40
2023-02-02T05:21:32.427Z,101215.60
2023-02-02T05:23:04.171Z,101210.80
2023-02-02T05:24:35.986Z,101218.80
2023-02-02T05:26:07.670Z,101214.00
2023-02-02T05:27:39.416Z,101216.80
2023-02-02T05:29:11.171Z,101220.00
2023-02-02T05:30:42.882Z,101223.00
2023-02-02T05:32:14.641Z,101218.60
2023-02-02T05:33:46.431Z,101218.20
2023-02-02T05:35:18.255Z,101219.40
2023-02-02T05:36:50.949Z,101219.80
2023-02-02T05:38:22.641Z,101215.80
2023-02-02T05:39:54.366Z,101223.00
2023-02-02T05:41:26.144Z,101224.40
2023-02-02T05:42:57.982Z,101221.20
2023-02-02T05:44:29.735Z,101228.60
2023-02-02T05:46:02.108Z,101229.00
2023-02-02T05:47:35.706Z,101227.00
2023-02-02T05:49:11.333Z,101227.20
2023-02-02T05:50:49.455Z,101221.40
2023-02-02T05:52:24.744Z,101224.40
2023-02-02T05:53:56.425Z,101225.00
2023-02-02T05:55:28.164Z,101225.60
2023-02-02T05:57:01.262Z,101229.20
2023-02-02T05:58:33.017Z,101227.00
2023-02-02T06:00:06.264Z,101225.60
2023-02-02T06:01:45.718Z,101227.40
2023-02-02T06:03:18.016Z,101227.40
2023-02-02T06:04:49.883Z,101231.00
2023-02-02T06:06:21.686Z,101232.20
2023-02-02T06:07:53.483Z,101235.00
2023-02-02T06:09:26.017Z,101233.60
2023-02-02T06:10:57.723Z,101235.20
2023-02-02T06:12:29.492Z,101231.80
2023-02-02T06:14:01.693Z,101242.80
2023-02-02T06:15:34.761Z,101235.80
2023-02-02T06:17:06.828Z,101237.00
2023-02-02T06:18:38.802Z,101234.20
2023-02-02T06:20:11.364Z,101244.20
2023-02-02T06:21:43.116Z,101235.00
2023-02-02T06:23:14.868Z,101238.80
2023-02-02T06:24:46.606Z,101240.40
2023-02-02T06:26:19.452Z,101240.20
2023-02-02T06:27:57.008Z,101236.20
2023-02-02T06:29:28.771Z,101242.40
2023-02-02T06:31:11.039Z,101250.20
2023-02-02T06:32:42.898Z,101247.60
2023-02-02T06:34:14.907Z,101249.40
2023-02-02T06:35:46.644Z,101254.60
2023-02-02T06:37:18.361Z,101251.60
2023-02-02T06:38:52.815Z,101247.60
2023-02-02T06:40:24.713Z,101261.80
2023-02-02T06:41:56.443Z,101263.40
2023-02-02T06:43:29.575Z,101258.80
2023-02-02T06:45:01.264Z,101264.60
2023-02-02T06:46:33.052Z,101263.60
2023-02-02T06:48:10.774Z,101265.80
2023-02-02T06:49:42.565Z,101267.40
2023-02-02T06:51:14.672Z,101270.00
2023-02-02T06:52:51.002Z,101275.00
2023-02-02T06:54:22.663Z,101276.00
2023-02-02T06:56:10.467Z,101277.60
2023-02-02T06:57:42.267Z,101280.00
2023-02-02T06:59:14.043Z,101276.00
2023-02-02T07:00:45.863Z,101272.40
2023-02-02T07:02:17.645Z,101273.80
2023-02-02T07:03:51.023Z,101277.00
2023-02-02T07:05:24.307Z,101273.80
2023-02-02T07:06:56.372Z,101276.40
2023-02-02T07:08:28.243Z,101274.80
2023-02-02T07:10:00.055Z,101274.20
2023-02-02T07:11:34.774Z,101277.00
2023-02-02T07:13:09.203Z,101275.00
2023-02-02T07:14:41.071Z,101272.40
2023-02-02T07:16:14.346Z,101273.20
2023-02-02T07:17:46.143Z,101279.20
2023-02-02T07:19:17.892Z,101283.20
2023-02-02T07:20:49.645Z,101282.60
2023-02-02T07:22:21.562Z,101280.80
2023-02-02T07:23:53.312Z,101282.40
2023-02-02T07:25:25.339Z,101284.80
2023-02-02T07:26:58.030Z,101286.40
2023-02-02T07:28:30.252Z,101292.00
2023-02-02T07:30:02.287Z,101291.60
2023-02-02T07:31:36.356Z,101296.00
2023-02-02T07:33:08.407Z,101297.60
2023-02-02T07:34:42.522Z,101300.80
2023-02-02T07:36:18.124Z,101299.60
2023-02-02T07:37:54.628Z,101302.60
2023-02-02T07:39:26.379Z,101297.80
2023-02-02T07:41:01.863Z,101301.20
2023-02-02T07:42:33.573Z,101298.20
2023-02-02T07:44:06.062Z,101302.20
2023-02-02T07:45:38.404Z,101302.00
2023-02-02T07:47:10.448Z,101298.40
2023-02-02T07:48:42.585Z,101305.40
2023-02-02T07:50:14.490Z,101305.20
2023-02-02T07:51:49.118Z,101310.20
2023-02-02T07:53:21.519Z,101308.00
2023-02-02T07:55:02.495Z,101302.60
2023-02-02T07:56:41.045Z,101306.80
2023-02-02T07:58:12.753Z,101305.40
2023-02-02T07:59:44.446Z,101306.40
2023-02-02T08:01:16.878Z,101309.60
2023-02-02T08:02:49.812Z,101316.40
2023-02-02T08:04:21.661Z,101313.40
2023-02-02T08:05:53.431Z,101313.80
2023-02-02T08:07:25.284Z,101317.40
2023-02-02T08:08:57.594Z,101315.60
2023-02-02T08:10:29.657Z,101317.20
2023-02-02T08:12:02.454Z,101324.40
2023-02-02T08:13:34.237Z,101324.60
2023-02-02T08:15:08.200Z,101320.80
2023-02-02T08:16:40.431Z,101326.80
2023-02-02T08:18:12.224Z,101326.20
2023-02-02T08:19:44.093Z,101331.40
2023-02-02T08:21:17.655Z,101330.00
2023-02-02T08:22:49.316Z,101334.00
2023-02-02T08:24:21.183Z,101335.20
2023-02-02T08:25:54.248Z,101336.60
2023-02-02T08:27:26.017Z,101341.20
2023-02-02T08:29:06.310Z,101346.40
2023-02-02T08:30:38.028Z,101339.20
2023-02-02T08:32:09.809Z,101342.00
2023-02-02T08:33:41.736Z,101337.00
2023-02-02T08:35:13.488Z,101345.20
2023-02-02T08:36:45.183Z,101343.80
2023-02-02T08:38:16.891Z,101343.80
2023-02-02T08:39:48.791Z,101347.00
2023-02-02T08:41:23.980Z,101342.00
2023-02-02T08:42:55.896Z,101353.00
2023-02-02T08:44:39.823Z,101351.40
2023-02-02T08:46:21.694Z,101349.60
2023-02-02T08:48:10.409Z,101350.40
2023-02-02T08:49:44.984Z,101351.40
2023-02-02T08:51:20.037Z,101360.80
2023-02-02T08:52:51.775Z,101362.60
2023-02-02T08:54:23.541Z,101361.40
2023-02-02T08:56:06.604Z,101369.00
2023-02-02T08:57:38.392Z,101372.00
2023-02-02T08:59:10.309Z,101369.60
2023-02-02T09:00:42.230Z,101377.40
2023-02-02T09:02:14.120Z,101375.20
2023-02-02T09:03:46.641Z,101382.00
2023-02-02T09:05:18.840Z,101382.40
2023-02-02T09:06:50.608Z,101380.00
2023-02-02T09:08:22.408Z,101382.80
2023-02-02T09:09:55.758Z,101385.40
2023-02-02T09:11:27.944Z,101386.60
2023-02-02T09:12:59.705Z,101387.80
2023-02-02T09:14:31.577Z,101396.00
2023-02-02T09:16:06.868Z,101397.40
2023-02-02T09:17:38.589Z,101398.60
2023-02-02T09:19:11.920Z,101410.00
2023-02-02T09:20:43.647Z,101409.20
2023-02-02T09:22:15.362Z,101413.80
2023-02-02T09:23:49.859Z,101410.00
2023-02-02T09:25:21.782Z,101417.00
2023-02-02T09:26:53.593Z,101421.60
2023-02-02T09:28:25.344Z,101420.60
2023-02-02T09:29:57.145Z,101421.60
2023-02-02T09:31:34.357Z,101422.60
2023-02-02T09:33:06.173Z,101431.60
2023-02-02T09:34:39.542Z,101426.60
2023-02-02T09:36:24.201Z,101431.40
2023-02-02T09:37:55.998Z,101432.60
2023-02-02T09:39:27.776Z,101435.80
2023-02-02T09:41:01.413Z,101436.00
2023-02-02T09:42:54.990Z,101439.20
2023-02-02T09:44:38.076Z,101443.00
2023-02-02T09:46:35.642Z,101439.40
2023-02-02T09:48:28.568Z,101450.00
2023-02-02T09:50:16.552Z,101451.00
2023-02-02T09:51:57.413Z,101453.60
2023-02-02T09:53:54.763Z,101460.80
2023-02-02T09:55:59.982Z,101456.60
2023-02-02T09:57:42.422Z,101460.20
2023-02-02T09:59:24.606Z,101469.00
2023-02-02T10:01:10.388Z,101465.60
2023-02-02T10:02:45.953Z,101468.80
2023-02-02T10:04:34.025Z,101473.60
2023-02-02T10:06:17.947Z,101478.20
2023-02-02T10:07:56.657Z,101478.20
2023-02-02T10:09:47.412Z,101476.40
2023-02-02T10:11:34.203Z,101487.00
2023-02-02T10:13:16.726Z,101480.20
2023-02-02T10:14:59.592Z,101484.60
2023-02-02T10:16:34.252Z,101479.60
2023-02-02T10:18:34.704Z,101492.00
2023-02-02T10:20:28.395Z,101483.40
2023-02-02T10:22:12.357Z,101483.00
2023-02-02T10:23:45.692Z,101489.00
2023-02-02T10:25:19.821Z,101486.40
2023-02-02T10:27:06.075Z,101496.00
2023-02-02T10:28:57.048Z,101496.00
2023-02-02T10:30:47.231Z,101496.80
2023-02-02T10:32:43.303Z,101501.20
2023-02-02T10:34:27.116Z,101500.80
2023-02-02T10:36:29.696Z,101502.00
2023-02-02T10:38:13.119Z,101507.40
2023-02-02T10:40:09.718Z,101500.00
2023-02-02T10:41:58.770Z,101505.80
2023-02-02T10:43:48.946Z,101503.00
2023-02-02T10:45:22.242Z,101510.00
2023-02-02T10:46:59.341Z,101508.40
2023-02-02T10:48:35.832Z,101502.60
2023-02-02T10:50:13.411Z,101508.00
2023-02-02T10:51:55.252Z,101505.20
2023-02-02T10:53:30.501Z,101507.80
2023-02-02T10:55:14.220Z,101503.40
2023-02-02T10:56:54.016Z,101506.40
2023-02-02T10:58:53.108Z,101507.00
2023-02-02T11:00:42.257Z,101506.00
2023-02-02T11:02:20.847Z,101511.40
2023-02-02T11:04:12.999Z,101513.40
2023-02-02T11:06:03.101Z,101513.00
2023-02-02T11:07:36.886Z,101509.80
2023-02-02T11:09:13.984Z,101505.40
2023-02-02T11:10:51.958Z,101510.00
2023-02-02T11:12:36.981Z,101516.40
2023-02-02T11:14:08.666Z,101518.40
2023-02-02T11:15:40.430Z,101514.60
2023-02-02T11:17:30.180Z,101516.40
2023-02-02T11:19:22.676Z,101517.60
2023-02-02T11:20:55.436Z,101516.60
2023-02-02T11:22:34.249Z,101518.20
2023-02-02T11:24:27.078Z,101520.20
2023-02-02T11:26:05.339Z,101525.60
2023-02-02T11:27:43.226Z,101524.60
2023-02-02T11:29:26.055Z,101520.20
2023-02-02T11:30:58.842Z,101515.80
2023-02-02T11:32:33.169Z,101518.60
2023-02-02T11:34:21.718Z,101514.40
2023-02-02T11:35:57.973Z,101518.80
2023-02-02T11:37:32.450Z,101516.80
2023-02-02T11:39:21.588Z,101514.40
2023-02-02T11:41:13.678Z,101514.00
2023-02-02T11:42:48.189Z,101511.60
2023-02-02T11:44:28.007Z,101511.80
2023-02-02T11:46:07.807Z,101517.40
2023-02-02T11:47:39.704Z,101512.20
2023-02-02T11:49:19.043Z,101522.00
2023-02-02T11:50:55.116Z,101516.20
2023-02-02T11:52:32.514Z,101510.60
2023-02-02T11:54:22.368Z,101512.20
2023-02-02T11:55:57.330Z,101508.80
2023-02-02T11:57:30.618Z,101506.60
2023-02-02T11:59:04.297Z,101506.00
2023-02-02T12:00:48.014Z,101501.60
2023-02-02T12:02:20.035Z,101502.80
2023-02-02T12:03:59.233Z,101510.40
2023-02-02T12:05:37.022Z,101503.20
2023-02-02T12:07:19.753Z,101506.60
2023-02-02T12:08:58.289Z,101504.20
2023-02-02T12:10:42.334Z,101508.00
2023-02-02T12:12:32.795Z,101509.60
2023-02-02T12:14:12.028Z,101512.20
2023-02-02T12:16:09.199Z,101515.20
2023-02-02T12:17:45.297Z,101514.20
2023-02-02T12:19:34.975Z,101515.00
2023-02-02T12:21:17.346Z,101514.60
2023-02-02T12:23:32.817Z,101517.00
2023-02-02T12:25:47.265Z,101513.20
2023-02-02T12:27:43.769Z,101514.40
2023-02-02T12:29:50.387Z,101514.80
2023-02-02T12:32:05.856Z,101524.60
2023-02-02T12:33:53.371Z,101520.60
2023-02-02T12:35:43.315Z,101522.80
2023-02-02T12:37:33.346Z,101525.60
2023-02-02T12:39:22.233Z,101523.40
2023-02-02T12:41:09.966Z,101521.60
2023-02-02T12:43:30.051Z,101513.60
2023-02-02T12:45:10.495Z,101514.40
2023-02-02T12:47:19.635Z,101518.60
2023-02-02T12:49:21.860Z,101524.20
2023-02-02T12:51:14.848Z,101520.40
2023-02-02T12:52:49.298Z,101519.80
2023-02-02T12:55:07.652Z,101519.20
2023-02-02T12:57:02.329Z,101523.00
2023-02-02T12:58:56.707Z,101521.40
2023-02-02T13:01:06.908Z,101514.00
2023-02-02T13:03:29.785Z,101517.80
2023-02-02T13:05:48.189Z,101514.00
2023-02-02T13:07:49.737Z,101511.00
2023-02-02T13:09:44.498Z,101508.20
2023-02-02T13:11:34.437Z,101510.40
2023-02-02T13:13:15.880Z,101510.40
2023-02-02T13:14:57.705Z,101511.60
2023-02-02T13:16:32.376Z,101511.00
2023-02-02T13:18:14.906Z,101506.80
2023-02-02T13:19:53.816Z,101514.00
2023-02-02T13:21:29.558Z,101508.00
2023-02-02T13:23:28.383Z,101515.80
2023-02-02T13:25:05.124Z,101518.20
2023-02-02T13:26:44.606Z,101516.20
2023-02-02T13:28:46.723Z,101511.00
2023-02-02T13:30:39.237Z,101513.80
2023-02-02T13:32:20.055Z,101520.60
2023-02-02T13:34:38.709Z,101525.80
2023-02-02T13:36:25.923Z,101526.00
2023-02-02T13:38:23.746Z,101525.40
2023-02-02T13:40:05.781Z,101524.40
2023-02-02T13:41:38.221Z,101530.60
2023-02-02T13:43:34.887Z,101529.00
2023-02-02T13:45:47.200Z,101533.40
2023-02-02T13:47:41.673Z,101543.20
2023-02-02T13:49:20.688Z,101532.20
2023-02-02T13:51:26.438Z,101538.40
2023-02-02T13:53:15.687Z,101538.40
2023-02-02T13:54:53.538Z,101534.00
2023-02-02T13:56:27.797Z,101534.20
2023-02-02T13:58:23.492Z,101536.20
2023-02-02T14:00:32.109Z,101536.00
2023-02-02T14:02:07.421Z,101537.60
2023-02-02T14:03:43.121Z,101539.20
2023-02-02T14:05:31.678Z,101548.80
2023-02-02T14:07:07.440Z,101539.80
2023-02-02T14:09:00.245Z,101540.60
2023-02-02T14:10:38.775Z,101533.00
2023-02-02T14:12:11.692Z,101531.40
2023-02-02T14:14:10.347Z,101533.40
2023-02-02T14:15:44.528Z,101537.80
2023-02-02T14:17:17.325Z,101541.00
2023-02-02T14:18:51.597Z,101533.40
2023-02-02T14:20:55.660Z,101536.00
2023-02-02T14:22:44.653Z,101539.60
2023-02-02T14:24:28.564Z,101538.20
2023-02-02T14:26:09.880Z,101543.60
2023-02-02T14:28:02.348Z,101545.00
2023-02-02T14:29:37.122Z,101550.00
2023-02-02T14:31:43.225Z,101557.80
2023-02-02T14:33:20.791Z,101549.00
2023-02-02T14:34:55.338Z,101554.00
2023-02-02T14:36:28.204Z,101553.40
2023-02-02T14:38:35.664Z,101556.40
2023-02-02T14:40:07.342Z,101555.40
2023-02-02T14:42:14.698Z,101558.00
2023-02-02T14:43:52.096Z,101551.20
2023-02-02T14:45:28.673Z,101556.00
2023-02-02T14:47:01.086Z,101560.80
2023-02-02T14:48:34.505Z,101560.20
2023-02-02T14:50:15.568Z,101559.60
2023-02-02T14:51:53.304Z,101559.60
2023-02-02T14:53:33.604Z,101570.00
2023-02-02T14:55:05.786Z,101570.20
2023-02-02T14:56:54.338Z,101571.60
2023-02-02T14:58:30.585Z,101574.40
2023-02-02T15:00:03.285Z,101578.40
2023-02-02T15:01:37.924Z,101580.00
2023-02-02T15:03:46.219Z,101588.60
2023-02-02T15:05:36.017Z,101592.00
2023-02-02T15:07:23.000Z,101587.80
2023-02-02T15:09:19.846Z,101584.60
2023-02-02T15:11:26.932Z,101582.20
2023-02-02T15:13:12.366Z,101588.40
2023-02-02T15:15:02.376Z,101588.80
2023-02-02T15:16:39.547Z,101599.60
2023-02-02T15:18:21.720Z,101595.80
2023-02-02T15:20:15.025Z,101595.80
2023-02-02T15:21:51.161Z,101598.40
2023-02-02T15:23:43.987Z,101595.00
2023-02-02T15:25:47.019Z,101597.60
2023-02-02T15:27:22.779Z,101591.20
2023-02-02T15:29:01.331Z,101587.00
2023-02-02T15:30:37.974Z,101598.00
2023-02-02T15:32:19.357Z,101588.60
2023-02-02T15:33:57.349Z,101591.80
2023-02-02T15:35:32.021Z,101594.60
2023-02-02T15:37:08.420Z,101593.80
2023-02-02T15:38:43.266Z,101598.80
2023-02-02T15:40:22.911Z,101595.20
2023-02-02T15:42:17.045Z,101594.00
2023-02-02T15:43:49.526Z,101597.60
2023-02-02T15:46:02.432Z,101596.80
2023-02-02T15:47:40.609Z,101598.40
2023-02-02T15:49:35.438Z,101602.20
2023-02-02T15:51:17.461Z,101607.40
2023-02-02T15:52:52.432Z,101611.00
2023-02-02T15:54:35.278Z,101605.00
2023-02-02T15:56:25.167Z,101610.60
2023-02-02T15:57:57.414Z,101611.80
2023-02-02T15:59:40.923Z,101619.60
2023-02-02T16:01:24.630Z,101620.60
2023-02-02T16:03:12.649Z,101620.60
2023-02-02T16:04:44.834Z,101626.20
2023-02-02T16:06:18.456Z,101629.40
2023-02-02T16:08:03.596Z,101631.40
2023-02-02T16:09:37.474Z,101630.20
2023-02-02T16:11:21.269Z,101629.40
2023-02-02T16:12:53.925Z,101626.20
2023-02-02T16:14:25.781Z,101630.40
2023-02-02T16:16:06.727Z,101633.20
2023-02-02T16:17:38.548Z,101634.80
2023-02-02T16:19:21.320Z,101630.80
2023-02-02T16:20:55.005Z,101636.80
2023-02-02T16:22:27.729Z,101635.20
2023-02-02T16:24:01.712Z,101634.80
2023-02-02T16:25:41.850Z,101635.40
2023-02-02T16:27:19.519Z,101636.40
2023-02-02T16:28:51.543Z,101634.20
2023-02-02T16:30:29.339Z,101632.20
2023-02-02T16:32:02.008Z,101634.80
2023-02-02T16:33:45.535Z,101635.80
2023-02-02T16:35:43.757Z,101636.40
2023-02-02T16:37:32.157Z,101632.60
2023-02-02T16:39:22.494Z,101631.20
2023-02-02T16:41:07.862Z,101638.00
2023-02-02T16:42:39.724Z,101643.20
2023-02-02T16:44:43.931Z,101641.80
2023-02-02T16:46:19.256Z,101649.00
2023-02-02T16:47:52.180Z,101652.80
2023-02-02T16:49:27.034Z,101654.60
2023-02-02T16:51:24.642Z,101655.40
2023-02-02T16:53:05.555Z,101653.60
2023-02-02T16:54:39.162Z,101663.20
2023-02-02T16:56:34.742Z,101657.80
2023-02-02T16:58:06.509Z,101663.00
2023-02-02T16:59:38.493Z,101665.00
2023-02-02T17:01:15.987Z,101665.80
2023-02-02T17:02:54.829Z,101666.60
2023-02-02T17:04:34.950Z,101678.00
2023-02-02T17:06:07.215Z,101675.40
2023-02-02T17:07:48.037Z,101676.40
2023-02-02T17:09:35.657Z,101669.80
2023-02-02T17:11:23.653Z,101667.00
2023-02-02T17:12:55.589Z,101668.40
2023-02-02T17:14:32.525Z,101673.00
2023-02-02T17:16:05.570Z,101667.00
2023-02-02T17:17:37.351Z,101668.80
2023-02-02T17:19:09.175Z,101671.20
2023-02-02T17:20:40.990Z,101674.20
2023-02-02T17:22:12.958Z,101683.60
2023-02-02T17:23:45.151Z,101684.20
2023-02-02T17:25:24.285Z,101682.20
2023-02-02T17:26:56.467Z,101679.80
2023-02-02T17:28:29.581Z,101674.20
2023-02-02T17:30:04.696Z,101687.60
2023-02-02T17:31:36.651Z,101681.00
2023-02-02T17:33:16.739Z,101679.80
2023-02-02T17:34:48.456Z,101687.60
2023-02-02T17:36:20.704Z,101682.80
2023-02-02T17:37:52.902Z,101678.80
2023-02-02T17:39:24.621Z,101685.20
2023-02-02T17:41:01.858Z,101689.80
2023-02-02T17:42:35.373Z,101692.60
2023-02-02T17:44:09.249Z,101696.40
2023-02-02T17:45:41.018Z,101697.40
2023-02-02T17:47:13.505Z,101690.20
2023-02-02T17:48:45.301Z,101687.80
2023-02-02T17:50:18.382Z,101692.40
2023-02-02T17:51:50.789Z,101687.20
2023-02-02T17:53:22.809Z,101690.60
2023-02-02T17:54:54.534Z,101690.40
2023-02-02T17:56:27.496Z,101683.80
2023-02-02T17:57:59.298Z,101685.20
2023-02-02T17:59:31.143Z,101687.60
2023-02-02T18:01:03.264Z,101685.00
2023-02-02T18:02:35.253Z,101684.60
2023-02-02T18:04:07.949Z,101686.60
2023-02-02T18:05:42.788Z,101691.20
2023-02-02T18:07:15.000Z,101686.20
2023-02-02T18:08:47.130Z,101690.00
2023-02-02T18:10:19.413Z,101693.20
2023-02-02T18:11:51.231Z,101692.00
2023-02-02T18:13:24.300Z,101693.00
2023-02-02T18:14:56.172Z,101689.40
2023-02-02T18:16:27.961Z,101691.80
2023-02-02T18:18:01.477Z,101695.60
2023-02-02T18:19:34.068Z,101697.60
2023-02-02T18:21:11.504Z,101689.40
2023-02-02T18:22:44.284Z,101691.00
2023-02-02T18:24:15.977Z,101689.40
2023-02-02T18:25:47.717Z,101697.60
2023-02-02T18:27:20.340Z,101692.80
2023-02-02T18:28:52.038Z,101692.20
2023-02-02T18:30:24.184Z,101688.20
2023-02-02T18:31:59.009Z,101692.00
2023-02-02T18:33:30.740Z,101696.40
2023-02-02T18:35:02.620Z,101693.60
2023-02-02T18:36:36.140Z,101692.80
2023-02-02T18:38:08.572Z,101701.00
2023-02-02T18:39:40.306Z,101695.60
2023-02-02T18:41:14.443Z,101696.80
2023-02-02T18:42:46.683Z,101695.00
2023-02-02T18:44:18.486Z,101691.00